sensor_id;sensor_type;location;lat;lon;timestamp;temperature;humidity
3758;DHT22;1894;51.038;13.692;2023-03-13T00:01:29;9.20;99.90
3758;DHT22;1894;51.038;13.692;2023-03-13T00:03:58;9.20;99.90
3758;DHT22;1894;51.038;13.692;2023-03-13T00:06:28;9.30;99.90
3758;DHT22;1894;51.038;13.692;2023-03-13T00:09:01;9.20;99.90
3758;DHT22;1894;51.038;13.692;2023-03-13T00:11:30;9.20;99.90
3758;DHT22;1894;51.038;13.692;2023-03-13T00:13:59;9.20;99.90
3758;DHT22;1894;51.038;13.692;2023-03-13T00:16:28;9.20;99.90
3758;DHT22;1894;51.038;13.692;2023-03-13T00:18:57;9.20;99.90
3758;DHT22;1894;51.038;13.692;2023-03-13T00:21:26;9.20;99.90
3758;DHT22;1894;51.038;13.692;2023-03-13T00:23:55;9.20;99.90
3758;DHT22;1894;51.038;13.692;2023-03-13T00:26:25;9.30;99.90
3758;DHT22;1894;51.038;13.692;2023-03-13T00:28:53;9.30;99.90
3758;DHT22;1894;51.038;13.692;2023-03-13T00:31:38;9.30;99.90
3758;DHT22;1894;51.038;13.692;2023-03-13T00:34:06;9.40;99.90
3758;DHT22;1894;51.038;13.692;2023-03-13T00:36:34;9.40;99.90
3758;DHT22;1894;51.038;13.692;2023-03-13T00:39:03;9.50;99.90
3758;DHT22;1894;51.038;13.692;2023-03-13T00:41:35;9.50;99.90
3758;DHT22;1894;51.038;13.692;2023-03-13T00:44:03;9.50;99.90
3758;DHT22;1894;51.038;13.692;2023-03-13T00:46:31;9.50;99.90
3758;DHT22;1894;51.038;13.692;2023-03-13T00:48:58;9.50;99.90
3758;DHT22;1894;51.038;13.692;2023-03-13T00:51:26;9.50;99.90
3758;DHT22;1894;51.038;13.692;2023-03-13T00:53:55;9.50;99.90
3758;DHT22;1894;51.038;13.692;2023-03-13T00:56:26;9.50;99.90
3758;DHT22;1894;51.038;13.692;2023-03-13T00:58:54;9.50;99.90
3758;DHT22;1894;51.038;13.692;2023-03-13T01:01:24;9.50;99.90
3758;DHT22;1894;51.038;13.692;2023-03-13T01:03:58;9.50;99.90
3758;DHT22;1894;51.038;13.692;2023-03-13T01:06:31;9.60;99.90
3758;DHT22;1894;51.038;13.692;2023-03-13T01:09:03;9.60;99.90
3758;DHT22;1894;51.038;13.692;2023-03-13T01:11:34;9.60;99.90
3758;DHT22;1894;51.038;13.692;2023-03-13T01:14:05;9.50;99.90
3758;DHT22;1894;51.038;13.692;2023-03-13T01:16:40;9.60;99.90
3758;DHT22;1894;51.038;13.692;2023-03-13T01:19:10;9.50;99.90
3758;DHT22;1894;51.038;13.692;2023-03-13T01:21:40;9.60;99.90
3758;DHT22;1894;51.038;13.692;2023-03-13T01:24:09;9.60;99.90
3758;DHT22;1894;51.038;13.692;2023-03-13T01:26:36;9.60;99.90
3758;DHT22;1894;51.038;13.692;2023-03-13T01:29:03;9.60;99.90
3758;DHT22;1894;51.038;13.692;2023-03-13T01:31:33;9.60;99.90
3758;DHT22;1894;51.038;13.692;2023-03-13T01:34:03;9.50;99.90
3758;DHT22;1894;51.038;13.692;2023-03-13T01:36:33;9.50;99.90
3758;DHT22;1894;51.038;13.692;2023-03-13T01:39:01;9.50;99.90
3758;DHT22;1894;51.038;13.692;2023-03-13T01:41:30;9.50;99.90
3758;DHT22;1894;51.038;13.692;2023-03-13T01:43:57;9.50;99.90
3758;DHT22;1894;51.038;13.692;2023-03-13T01:46:32;9.40;99.90
3758;DHT22;1894;51.038;13.692;2023-03-13T01:52:25;9.50;99.90
3758;DHT22;1894;51.038;13.692;2023-03-13T01:55:14;9.50;99.90
3758;DHT22;1894;51.038;13.692;2023-03-13T01:57:49;9.60;99.90
3758;DHT22;1894;51.038;13.692;2023-03-13T02:00:26;9.50;99.90
3758;DHT22;1894;51.038;13.692;2023-03-13T02:02:59;9.50;99.90
3758;DHT22;1894;51.038;13.692;2023-03-13T02:05:33;9.50;99.90
3758;DHT22;1894;51.038;13.692;2023-03-13T02:08:03;9.40;99.90
3758;DHT22;1894;51.038;13.692;2023-03-13T02:10:52;9.50;99.90
3758;DHT22;1894;51.038;13.692;2023-03-13T02:13:22;9.50;99.90
3758;DHT22;1894;51.038;13.692;2023-03-13T02:15:49;9.40;99.90
3758;DHT22;1894;51.038;13.692;2023-03-13T02:18:17;9.40;99.90
3758;DHT22;1894;51.038;13.692;2023-03-13T02:20:46;9.30;99.90
3758;DHT22;1894;51.038;13.692;2023-03-13T02:23:30;9.20;99.90
3758;DHT22;1894;51.038;13.692;2023-03-13T02:26:02;9.10;99.90
3758;DHT22;1894;51.038;13.692;2023-03-13T02:28:34;9.10;99.90
3758;DHT22;1894;51.038;13.692;2023-03-13T02:31:05;9.00;99.90
3758;DHT22;1894;51.038;13.692;2023-03-13T02:33:37;8.90;99.90
3758;DHT22;1894;51.038;13.692;2023-03-13T02:36:07;8.90;99.90
3758;DHT22;1894;51.038;13.692;2023-03-13T02:38:41;8.80;99.90
3758;DHT22;1894;51.038;13.692;2023-03-13T02:41:14;8.90;99.90
3758;DHT22;1894;51.038;13.692;2023-03-13T02:43:42;8.90;99.90
3758;DHT22;1894;51.038;13.692;2023-03-13T02:46:13;8.90;99.90
3758;DHT22;1894;51.038;13.692;2023-03-13T02:48:49;8.90;99.90
3758;DHT22;1894;51.038;13.692;2023-03-13T02:51:41;8.90;99.90
3758;DHT22;1894;51.038;13.692;2023-03-13T02:54:20;9.00;99.90
3758;DHT22;1894;51.038;13.692;2023-03-13T02:56:59;9.00;99.90
3758;DHT22;1894;51.038;13.692;2023-03-13T02:59:28;9.00;99.90
3758;DHT22;1894;51.038;13.692;2023-03-13T03:01:56;9.00;99.90
3758;DHT22;1894;51.038;13.692;2023-03-13T03:04:24;9.00;99.90
3758;DHT22;1894;51.038;13.692;2023-03-13T03:06:54;9.00;99.90
3758;DHT22;1894;51.038;13.692;2023-03-13T03:09:22;9.00;99.90
3758;DHT22;1894;51.038;13.692;2023-03-13T03:11:54;9.00;99.90
3758;DHT22;1894;51.038;13.692;2023-03-13T03:14:21;9.00;99.90
3758;DHT22;1894;51.038;13.692;2023-03-13T03:16:49;9.00;99.90
3758;DHT22;1894;51.038;13.692;2023-03-13T03:19:16;9.00;99.90
3758;DHT22;1894;51.038;13.692;2023-03-13T03:21:43;8.90;99.90
3758;DHT22;1894;51.038;13.692;2023-03-13T03:24:10;8.90;99.90
3758;DHT22;1894;51.038;13.692;2023-03-13T03:26:37;8.90;99.90
3758;DHT22;1894;51.038;13.692;2023-03-13T03:29:10;8.90;99.90
3758;DHT22;1894;51.038;13.692;2023-03-13T03:31:39;8.90;99.90
3758;DHT22;1894;51.038;13.692;2023-03-13T03:34:06;8.90;99.90
3758;DHT22;1894;51.038;13.692;2023-03-13T03:36:33;8.90;99.90
3758;DHT22;1894;51.038;13.692;2023-03-13T03:39:00;8.90;99.90
3758;DHT22;1894;51.038;13.692;2023-03-13T03:41:29;8.90;99.90
3758;DHT22;1894;51.038;13.692;2023-03-13T03:43:57;8.90;99.90
3758;DHT22;1894;51.038;13.692;2023-03-13T03:46:32;9.00;99.90
3758;DHT22;1894;51.038;13.692;2023-03-13T03:49:00;9.00;99.90
3758;DHT22;1894;51.038;13.692;2023-03-13T03:51:27;9.00;99.90
3758;DHT22;1894;51.038;13.692;2023-03-13T03:53:54;9.10;99.90
3758;DHT22;1894;51.038;13.692;2023-03-13T03:56:21;9.10;99.90
3758;DHT22;1894;51.038;13.692;2023-03-13T03:58:53;9.10;99.90
3758;DHT22;1894;51.038;13.692;2023-03-13T04:01:40;9.10;99.90
3758;DHT22;1894;51.038;13.692;2023-03-13T04:04:08;9.10;99.90
3758;DHT22;1894;51.038;13.692;2023-03-13T04:06:38;9.10;99.90
3758;DHT22;1894;51.038;13.692;2023-03-13T04:09:07;9.10;99.90
3758;DHT22;1894;51.038;13.692;2023-03-13T04:11:35;9.10;99.90
3758;DHT22;1894;51.038;13.692;2023-03-13T04:14:05;9.00;99.90
3758;DHT22;1894;51.038;13.692;2023-03-13T04:16:32;9.00;99.90
3758;DHT22;1894;51.038;13.692;2023-03-13T04:19:00;9.00;99.90
3758;DHT22;1894;51.038;13.692;2023-03-13T04:21:27;9.00;99.90
3758;DHT22;1894;51.038;13.692;2023-03-13T04:24:00;8.90;99.90
3758;DHT22;1894;51.038;13.692;2023-03-13T04:26:28;9.00;99.90
3758;DHT22;1894;51.038;13.692;2023-03-13T04:28:57;9.00;99.90
3758;DHT22;1894;51.038;13.692;2023-03-13T04:31:54;9.00;99.90
3758;DHT22;1894;51.038;13.692;2023-03-13T04:34:33;8.90;99.90
3758;DHT22;1894;51.038;13.692;2023-03-13T04:37:11;8.90;99.90
3758;DHT22;1894;51.038;13.692;2023-03-13T04:39:38;8.90;99.90
3758;DHT22;1894;51.038;13.692;2023-03-13T04:42:23;8.90;99.90
3758;DHT22;1894;51.038;13.692;2023-03-13T04:44:50;9.00;99.90
3758;DHT22;1894;51.038;13.692;2023-03-13T04:47:42;9.00;99.90
3758;DHT22;1894;51.038;13.692;2023-03-13T04:50:28;9.00;99.90
3758;DHT22;1894;51.038;13.692;2023-03-13T04:53:21;9.00;99.90
3758;DHT22;1894;51.038;13.692;2023-03-13T04:56:20;9.10;99.90
3758;DHT22;1894;51.038;13.692;2023-03-13T04:59:22;9.20;99.90
3758;DHT22;1894;51.038;13.692;2023-03-13T05:02:10;9.20;99.90
3758;DHT22;1894;51.038;13.692;2023-03-13T05:04:47;9.20;99.90
3758;DHT22;1894;51.038;13.692;2023-03-13T05:07:46;9.20;99.90
3758;DHT22;1894;51.038;13.692;2023-03-13T05:10:32;9.20;99.90
3758;DHT22;1894;51.038;13.692;2023-03-13T05:13:04;9.20;99.90
3758;DHT22;1894;51.038;13.692;2023-03-13T05:15:57;9.30;99.90
3758;DHT22;1894;51.038;13.692;2023-03-13T05:18:54;9.30;99.90
3758;DHT22;1894;51.038;13.692;2023-03-13T05:21:34;9.30;99.90
3758;DHT22;1894;51.038;13.692;2023-03-13T05:24:24;9.40;99.90
3758;DHT22;1894;51.038;13.692;2023-03-13T05:27:26;9.50;99.90
3758;DHT22;1894;51.038;13.692;2023-03-13T05:30:12;9.50;99.90
3758;DHT22;1894;51.038;13.692;2023-03-13T05:33:08;9.50;99.90
3758;DHT22;1894;51.038;13.692;2023-03-13T05:36:01;9.60;99.90
3758;DHT22;1894;51.038;13.692;2023-03-13T05:38:46;9.60;99.90
3758;DHT22;1894;51.038;13.692;2023-03-13T05:41:21;9.70;99.90
3758;DHT22;1894;51.038;13.692;2023-03-13T05:44:08;9.70;99.90
3758;DHT22;1894;51.038;13.692;2023-03-13T05:46:54;9.70;99.90
3758;DHT22;1894;51.038;13.692;2023-03-13T05:49:33;9.70;99.90
3758;DHT22;1894;51.038;13.692;2023-03-13T05:52:09;9.80;99.90
3758;DHT22;1894;51.038;13.692;2023-03-13T05:54:53;9.80;99.90
3758;DHT22;1894;51.038;13.692;2023-03-13T05:57:38;9.90;99.90
3758;DHT22;1894;51.038;13.692;2023-03-13T06:00:26;9.90;99.90
3758;DHT22;1894;51.038;13.692;2023-03-13T06:03:16;10.00;99.90
3758;DHT22;1894;51.038;13.692;2023-03-13T06:05:45;10.00;99.90
3758;DHT22;1894;51.038;13.692;2023-03-13T06:08:25;10.10;99.90
3758;DHT22;1894;51.038;13.692;2023-03-13T06:10:52;10.10;99.90
3758;DHT22;1894;51.038;13.692;2023-03-13T06:13:19;10.10;99.90
3758;DHT22;1894;51.038;13.692;2023-03-13T06:15:52;10.30;99.90
3758;DHT22;1894;51.038;13.692;2023-03-13T06:18:49;10.30;99.90
3758;DHT22;1894;51.038;13.692;2023-03-13T06:21:16;10.40;99.90
3758;DHT22;1894;51.038;13.692;2023-03-13T06:23:43;10.40;99.90
3758;DHT22;1894;51.038;13.692;2023-03-13T06:26:11;10.50;99.90
3758;DHT22;1894;51.038;13.692;2023-03-13T06:28:38;10.50;99.90
3758;DHT22;1894;51.038;13.692;2023-03-13T06:31:06;10.50;99.90
3758;DHT22;1894;51.038;13.692;2023-03-13T06:33:34;10.50;99.90
3758;DHT22;1894;51.038;13.692;2023-03-13T06:36:02;10.60;99.90
3758;DHT22;1894;51.038;13.692;2023-03-13T06:38:30;10.60;99.90
3758;DHT22;1894;51.038;13.692;2023-03-13T06:40:57;10.60;99.90
3758;DHT22;1894;51.038;13.692;2023-03-13T06:43:24;10.70;99.90
3758;DHT22;1894;51.038;13.692;2023-03-13T06:45:51;10.80;99.90
3758;DHT22;1894;51.038;13.692;2023-03-13T06:48:19;10.90;99.90
3758;DHT22;1894;51.038;13.692;2023-03-13T06:50:48;11.00;99.90
3758;DHT22;1894;51.038;13.692;2023-03-13T06:53:18;11.10;99.90
3758;DHT22;1894;51.038;13.692;2023-03-13T06:55:46;11.10;99.90
3758;DHT22;1894;51.038;13.692;2023-03-13T06:58:15;11.10;99.90
3758;DHT22;1894;51.038;13.692;2023-03-13T07:00:59;11.20;99.90
3758;DHT22;1894;51.038;13.692;2023-03-13T07:03:32;11.20;99.90
3758;DHT22;1894;51.038;13.692;2023-03-13T07:06:00;11.20;99.90
3758;DHT22;1894;51.038;13.692;2023-03-13T07:08:27;11.30;99.90
3758;DHT22;1894;51.038;13.692;2023-03-13T07:10:58;11.40;99.90
3758;DHT22;1894;51.038;13.692;2023-03-13T07:13:27;11.40;99.90
3758;DHT22;1894;51.038;13.692;2023-03-13T07:15:55;11.40;99.90
3758;DHT22;1894;51.038;13.692;2023-03-13T07:18:22;11.40;99.90
3758;DHT22;1894;51.038;13.692;2023-03-13T07:20:54;11.30;99.90
3758;DHT22;1894;51.038;13.692;2023-03-13T07:23:23;11.30;99.90
3758;DHT22;1894;51.038;13.692;2023-03-13T07:25:56;11.30;99.90
3758;DHT22;1894;51.038;13.692;2023-03-13T07:28:26;11.20;99.90
3758;DHT22;1894;51.038;13.692;2023-03-13T07:30:54;11.20;99.90
3758;DHT22;1894;51.038;13.692;2023-03-13T07:33:21;11.10;99.90
3758;DHT22;1894;51.038;13.692;2023-03-13T07:35:49;11.00;99.90
3758;DHT22;1894;51.038;13.692;2023-03-13T07:38:18;10.80;99.90
3758;DHT22;1894;51.038;13.692;2023-03-13T07:40:56;10.60;99.90
3758;DHT22;1894;51.038;13.692;2023-03-13T07:43:24;10.60;99.90
3758;DHT22;1894;51.038;13.692;2023-03-13T07:45:57;10.50;99.90
3758;DHT22;1894;51.038;13.692;2023-03-13T07:48:39;10.40;99.90
3758;DHT22;1894;51.038;13.692;2023-03-13T07:51:21;10.50;99.90
3758;DHT22;1894;51.038;13.692;2023-03-13T07:54:06;10.50;99.90
3758;DHT22;1894;51.038;13.692;2023-03-13T07:56:33;10.60;99.90
3758;DHT22;1894;51.038;13.692;2023-03-13T07:59:00;10.70;99.90
3758;DHT22;1894;51.038;13.692;2023-03-13T08:01:27;10.70;99.90
3758;DHT22;1894;51.038;13.692;2023-03-13T08:03:57;10.80;99.90
3758;DHT22;1894;51.038;13.692;2023-03-13T08:06:30;10.80;99.90
3758;DHT22;1894;51.038;13.692;2023-03-13T08:09:00;10.80;99.90
3758;DHT22;1894;51.038;13.692;2023-03-13T08:11:27;10.80;99.90
3758;DHT22;1894;51.038;13.692;2023-03-13T08:13:56;10.80;99.90
3758;DHT22;1894;51.038;13.692;2023-03-13T08:16:28;10.80;99.90
3758;DHT22;1894;51.038;13.692;2023-03-13T08:18:59;10.80;99.90
3758;DHT22;1894;51.038;13.692;2023-03-13T08:21:34;10.80;99.90
3758;DHT22;1894;51.038;13.692;2023-03-13T08:24:05;10.90;99.90
3758;DHT22;1894;51.038;13.692;2023-03-13T08:26:35;10.80;99.90
3758;DHT22;1894;51.038;13.692;2023-03-13T08:29:06;10.80;99.90
3758;DHT22;1894;51.038;13.692;2023-03-13T08:31:42;10.70;99.90
3758;DHT22;1894;51.038;13.692;2023-03-13T08:34:15;10.70;99.90
3758;DHT22;1894;51.038;13.692;2023-03-13T08:36:43;10.70;99.90
3758;DHT22;1894;51.038;13.692;2023-03-13T08:41:42;10.90;99.90
3758;DHT22;1894;51.038;13.692;2023-03-13T08:44:12;10.90;99.90
3758;DHT22;1894;51.038;13.692;2023-03-13T08:46:41;11.00;99.90
3758;DHT22;1894;51.038;13.692;2023-03-13T08:49:10;11.10;99.90
3758;DHT22;1894;51.038;13.692;2023-03-13T08:51:38;11.20;99.90
3758;DHT22;1894;51.038;13.692;2023-03-13T08:54:06;11.30;99.90
3758;DHT22;1894;51.038;13.692;2023-03-13T08:56:33;11.40;99.90
3758;DHT22;1894;51.038;13.692;2023-03-13T08:59:03;11.50;99.90
3758;DHT22;1894;51.038;13.692;2023-03-13T09:01:32;11.50;99.90
3758;DHT22;1894;51.038;13.692;2023-03-13T09:04:01;11.50;99.90
3758;DHT22;1894;51.038;13.692;2023-03-13T09:06:34;11.60;99.90
3758;DHT22;1894;51.038;13.692;2023-03-13T09:09:04;11.70;99.90
3758;DHT22;1894;51.038;13.692;2023-03-13T09:11:32;11.70;99.90
3758;DHT22;1894;51.038;13.692;2023-03-13T09:14:00;11.60;99.90
3758;DHT22;1894;51.038;13.692;2023-03-13T09:16:29;11.50;99.90
3758;DHT22;1894;51.038;13.692;2023-03-13T09:18:58;11.60;99.90
3758;DHT22;1894;51.038;13.692;2023-03-13T09:21:31;11.60;99.90
3758;DHT22;1894;51.038;13.692;2023-03-13T09:24:00;11.60;99.90
3758;DHT22;1894;51.038;13.692;2023-03-13T09:26:27;11.60;99.90
3758;DHT22;1894;51.038;13.692;2023-03-13T09:28:55;11.60;99.90
3758;DHT22;1894;51.038;13.692;2023-03-13T09:31:25;11.60;99.90
3758;DHT22;1894;51.038;13.692;2023-03-13T09:33:54;11.70;99.90
3758;DHT22;1894;51.038;13.692;2023-03-13T09:36:22;11.70;99.90
3758;DHT22;1894;51.038;13.692;2023-03-13T09:38:51;11.70;99.90
3758;DHT22;1894;51.038;13.692;2023-03-13T09:41:39;11.50;99.90
3758;DHT22;1894;51.038;13.692;2023-03-13T09:44:42;11.50;99.90
3758;DHT22;1894;51.038;13.692;2023-03-13T09:47:20;11.40;99.90
3758;DHT22;1894;51.038;13.692;2023-03-13T09:49:57;11.60;99.90
3758;DHT22;1894;51.038;13.692;2023-03-13T09:52:37;11.80;99.90
3758;DHT22;1894;51.038;13.692;2023-03-13T09:55:30;12.00;99.90
3758;DHT22;1894;51.038;13.692;2023-03-13T09:58:03;12.20;99.90
3758;DHT22;1894;51.038;13.692;2023-03-13T10:00:42;12.40;99.90
3758;DHT22;1894;51.038;13.692;2023-03-13T10:03:17;12.50;99.90
3758;DHT22;1894;51.038;13.692;2023-03-13T10:06:11;12.60;99.90
3758;DHT22;1894;51.038;13.692;2023-03-13T10:08:42;12.60;99.90
3758;DHT22;1894;51.038;13.692;2023-03-13T10:14:26;12.60;99.90
3758;DHT22;1894;51.038;13.692;2023-03-13T10:17:25;12.60;99.90
3758;DHT22;1894;51.038;13.692;2023-03-13T10:22:43;12.60;99.90
3758;DHT22;1894;51.038;13.692;2023-03-13T10:25:29;12.70;99.90
3758;DHT22;1894;51.038;13.692;2023-03-13T10:28:00;12.90;99.90
3758;DHT22;1894;51.038;13.692;2023-03-13T10:30:31;12.90;99.90
3758;DHT22;1894;51.038;13.692;2023-03-13T10:33:16;13.00;99.90
3758;DHT22;1894;51.038;13.692;2023-03-13T10:35:45;13.10;99.90
3758;DHT22;1894;51.038;13.692;2023-03-13T10:38:26;13.20;99.90
3758;DHT22;1894;51.038;13.692;2023-03-13T10:43:59;13.40;99.90
3758;DHT22;1894;51.038;13.692;2023-03-13T10:46:32;13.40;99.90
3758;DHT22;1894;51.038;13.692;2023-03-13T10:49:03;13.60;99.90
3758;DHT22;1894;51.038;13.692;2023-03-13T10:51:47;13.70;99.90
3758;DHT22;1894;51.038;13.692;2023-03-13T10:54:29;13.90;99.90
3758;DHT22;1894;51.038;13.692;2023-03-13T10:57:28;14.00;99.90
3758;DHT22;1894;51.038;13.692;2023-03-13T10:59:57;14.10;99.90
3758;DHT22;1894;51.038;13.692;2023-03-13T11:02:33;14.20;99.90
3758;DHT22;1894;51.038;13.692;2023-03-13T11:07:54;14.30;99.90
3758;DHT22;1894;51.038;13.692;2023-03-13T11:10:27;14.40;99.90
3758;DHT22;1894;51.038;13.692;2023-03-13T11:12:58;14.60;99.90
3758;DHT22;1894;51.038;13.692;2023-03-13T11:15:34;15.00;99.90
3758;DHT22;1894;51.038;13.692;2023-03-13T11:18:17;15.00;99.90
3758;DHT22;1894;51.038;13.692;2023-03-13T11:20:50;14.90;99.90
3758;DHT22;1894;51.038;13.692;2023-03-13T11:23:24;15.10;99.90
3758;DHT22;1894;51.038;13.692;2023-03-13T11:28:59;15.00;99.90
3758;DHT22;1894;51.038;13.692;2023-03-13T11:31:45;15.00;99.90
3758;DHT22;1894;51.038;13.692;2023-03-13T11:34:26;14.70;99.90
3758;DHT22;1894;51.038;13.692;2023-03-13T11:37:09;14.60;99.90
3758;DHT22;1894;51.038;13.692;2023-03-13T11:40:05;14.40;99.90
3758;DHT22;1894;51.038;13.692;2023-03-13T11:43:08;14.40;99.90
3758;DHT22;1894;51.038;13.692;2023-03-13T11:46:13;14.40;99.90
3758;DHT22;1894;51.038;13.692;2023-03-13T11:49:18;14.20;99.90
3758;DHT22;1894;51.038;13.692;2023-03-13T11:52:24;14.20;99.90
3758;DHT22;1894;51.038;13.692;2023-03-13T11:55:56;14.10;99.90
3758;DHT22;1894;51.038;13.692;2023-03-13T12:01:25;14.10;99.90
3758;DHT22;1894;51.038;13.692;2023-03-13T12:07:00;14.00;99.90
3758;DHT22;1894;51.038;13.692;2023-03-13T12:09:39;14.00;99.90
3758;DHT22;1894;51.038;13.692;2023-03-13T12:13:15;14.20;99.90
3758;DHT22;1894;51.038;13.692;2023-03-13T12:15:51;14.30;99.90
3758;DHT22;1894;51.038;13.692;2023-03-13T12:18:38;14.30;99.90
3758;DHT22;1894;51.038;13.692;2023-03-13T12:21:29;14.30;99.90
3758;DHT22;1894;51.038;13.692;2023-03-13T12:24:35;14.40;99.90
3758;DHT22;1894;51.038;13.692;2023-03-13T12:27:28;14.70;99.90
3758;DHT22;1894;51.038;13.692;2023-03-13T12:30:00;15.20;99.90
3758;DHT22;1894;51.038;13.692;2023-03-13T12:32:42;15.20;99.90
3758;DHT22;1894;51.038;13.692;2023-03-13T12:35:29;15.40;99.90
3758;DHT22;1894;51.038;13.692;2023-03-13T12:38:23;16.00;99.90
3758;DHT22;1894;51.038;13.692;2023-03-13T12:41:03;16.00;99.90
3758;DHT22;1894;51.038;13.692;2023-03-13T12:43:37;15.80;99.90
3758;DHT22;1894;51.038;13.692;2023-03-13T12:46:18;15.90;99.90
3758;DHT22;1894;51.038;13.692;2023-03-13T12:52:10;15.90;99.90
3758;DHT22;1894;51.038;13.692;2023-03-13T12:58:06;15.80;99.90
3758;DHT22;1894;51.038;13.692;2023-03-13T13:00:34;16.30;99.90
3758;DHT22;1894;51.038;13.692;2023-03-13T13:06:06;16.10;99.90
3758;DHT22;1894;51.038;13.692;2023-03-13T13:19:46;17.10;99.90
3758;DHT22;1894;51.038;13.692;2023-03-13T13:30:03;21.40;99.90
3758;DHT22;1894;51.038;13.692;2023-03-13T13:38:37;19.20;99.90
3758;DHT22;1894;51.038;13.692;2023-03-13T13:43:42;18.10;99.90
3758;DHT22;1894;51.038;13.692;2023-03-13T13:51:37;17.30;99.90
3758;DHT22;1894;51.038;13.692;2023-03-13T13:57:13;17.20;99.90
3758;DHT22;1894;51.038;13.692;2023-03-13T13:59:47;16.90;99.90
3758;DHT22;1894;51.038;13.692;2023-03-13T14:02:19;17.10;99.90
3758;DHT22;1894;51.038;13.692;2023-03-13T14:15:44;17.60;99.90
3758;DHT22;1894;51.038;13.692;2023-03-13T14:18:23;17.90;99.90
3758;DHT22;1894;51.038;13.692;2023-03-13T14:21:03;17.90;99.90
3758;DHT22;1894;51.038;13.692;2023-03-13T14:23:44;18.60;99.90
3758;DHT22;1894;51.038;13.692;2023-03-13T14:26:16;19.60;99.90
3758;DHT22;1894;51.038;13.692;2023-03-13T14:28:49;20.00;99.90
3758;DHT22;1894;51.038;13.692;2023-03-13T14:33:56;19.00;99.90
3758;DHT22;1894;51.038;13.692;2023-03-13T14:36:25;18.50;99.90
3758;DHT22;1894;51.038;13.692;2023-03-13T14:38:55;18.20;99.90
3758;DHT22;1894;51.038;13.692;2023-03-13T14:41:31;17.70;99.90
3758;DHT22;1894;51.038;13.692;2023-03-13T14:44:13;17.50;99.90
3758;DHT22;1894;51.038;13.692;2023-03-13T14:46:46;17.40;99.90
3758;DHT22;1894;51.038;13.692;2023-03-13T14:49:23;17.40;99.90
3758;DHT22;1894;51.038;13.692;2023-03-13T14:54:53;17.40;99.90
3758;DHT22;1894;51.038;13.692;2023-03-13T14:57:57;17.40;99.90
3758;DHT22;1894;51.038;13.692;2023-03-13T15:00:37;17.10;99.90
3758;DHT22;1894;51.038;13.692;2023-03-13T15:05:44;16.80;99.90
3758;DHT22;1894;51.038;13.692;2023-03-13T15:08:30;16.70;99.90
3758;DHT22;1894;51.038;13.692;2023-03-13T15:10:57;16.70;99.90
3758;DHT22;1894;51.038;13.692;2023-03-13T15:13:36;16.60;99.90
3758;DHT22;1894;51.038;13.692;2023-03-13T15:16:15;16.60;99.90
3758;DHT22;1894;51.038;13.692;2023-03-13T15:18:46;16.50;99.90
3758;DHT22;1894;51.038;13.692;2023-03-13T15:23:54;16.50;99.90
3758;DHT22;1894;51.038;13.692;2023-03-13T15:26:22;16.50;99.90
3758;DHT22;1894;51.038;13.692;2023-03-13T15:28:50;16.50;99.90
3758;DHT22;1894;51.038;13.692;2023-03-13T15:31:19;16.40;99.90
3758;DHT22;1894;51.038;13.692;2023-03-13T15:33:56;16.40;99.90
3758;DHT22;1894;51.038;13.692;2023-03-13T15:36:26;16.40;99.90
3758;DHT22;1894;51.038;13.692;2023-03-13T15:38:55;16.40;99.90
3758;DHT22;1894;51.038;13.692;2023-03-13T15:41:22;16.30;99.90
3758;DHT22;1894;51.038;13.692;2023-03-13T15:43:51;16.30;99.90
3758;DHT22;1894;51.038;13.692;2023-03-13T15:46:19;16.30;99.90
3758;DHT22;1894;51.038;13.692;2023-03-13T15:48:47;16.40;99.90
3758;DHT22;1894;51.038;13.692;2023-03-13T15:51:15;16.40;99.90
3758;DHT22;1894;51.038;13.692;2023-03-13T15:53:43;16.80;99.90
3758;DHT22;1894;51.038;13.692;2023-03-13T15:56:18;17.10;99.90
3758;DHT22;1894;51.038;13.692;2023-03-13T15:58:47;17.10;99.90
3758;DHT22;1894;51.038;13.692;2023-03-13T16:01:16;17.10;99.90
3758;DHT22;1894;51.038;13.692;2023-03-13T16:03:44;17.10;99.90
3758;DHT22;1894;51.038;13.692;2023-03-13T16:06:29;16.90;99.90
3758;DHT22;1894;51.038;13.692;2023-03-13T16:08:58;16.90;99.90
3758;DHT22;1894;51.038;13.692;2023-03-13T16:11:28;16.80;99.90
3758;DHT22;1894;51.038;13.692;2023-03-13T16:13:56;16.60;99.90
3758;DHT22;1894;51.038;13.692;2023-03-13T16:16:25;16.60;99.90
3758;DHT22;1894;51.038;13.692;2023-03-13T16:18:59;16.50;99.90
3758;DHT22;1894;51.038;13.692;2023-03-13T16:21:32;16.40;99.90
3758;DHT22;1894;51.038;13.692;2023-03-13T16:24:00;16.20;99.90
3758;DHT22;1894;51.038;13.692;2023-03-13T16:26:29;16.10;99.90
3758;DHT22;1894;51.038;13.692;2023-03-13T16:28:58;16.10;99.90
3758;DHT22;1894;51.038;13.692;2023-03-13T16:31:27;16.00;99.90
3758;DHT22;1894;51.038;13.692;2023-03-13T16:33:56;16.00;99.90
3758;DHT22;1894;51.038;13.692;2023-03-13T16:36:27;15.90;99.90
3758;DHT22;1894;51.038;13.692;2023-03-13T16:38:58;15.90;99.90
3758;DHT22;1894;51.038;13.692;2023-03-13T16:41:27;15.80;99.90
3758;DHT22;1894;51.038;13.692;2023-03-13T16:43:55;15.80;99.90
3758;DHT22;1894;51.038;13.692;2023-03-13T16:46:26;15.80;99.90
3758;DHT22;1894;51.038;13.692;2023-03-13T16:48:57;15.80;99.90
3758;DHT22;1894;51.038;13.692;2023-03-13T16:51:26;15.70;99.90
3758;DHT22;1894;51.038;13.692;2023-03-13T16:53:55;15.60;99.90
3758;DHT22;1894;51.038;13.692;2023-03-13T16:56:34;15.50;99.90
3758;DHT22;1894;51.038;13.692;2023-03-13T16:59:06;15.40;99.90
3758;DHT22;1894;51.038;13.692;2023-03-13T17:01:43;15.20;99.90
3758;DHT22;1894;51.038;13.692;2023-03-13T17:04:12;15.20;99.90
3758;DHT22;1894;51.038;13.692;2023-03-13T17:06:41;14.90;99.90
3758;DHT22;1894;51.038;13.692;2023-03-13T17:09:15;14.80;99.90
3758;DHT22;1894;51.038;13.692;2023-03-13T17:11:43;14.80;99.90
3758;DHT22;1894;51.038;13.692;2023-03-13T17:14:11;14.70;99.90
3758;DHT22;1894;51.038;13.692;2023-03-13T17:16:41;14.70;99.90
3758;DHT22;1894;51.038;13.692;2023-03-13T17:19:13;14.70;99.90
3758;DHT22;1894;51.038;13.692;2023-03-13T17:21:42;14.60;99.90
3758;DHT22;1894;51.038;13.692;2023-03-13T17:24:10;14.50;99.90
3758;DHT22;1894;51.038;13.692;2023-03-13T17:26:38;14.50;99.90
3758;DHT22;1894;51.038;13.692;2023-03-13T17:29:06;14.50;99.90
3758;DHT22;1894;51.038;13.692;2023-03-13T17:31:36;14.40;99.90
3758;DHT22;1894;51.038;13.692;2023-03-13T17:34:05;14.30;99.90
3758;DHT22;1894;51.038;13.692;2023-03-13T17:36:33;14.30;99.90
3758;DHT22;1894;51.038;13.692;2023-03-13T17:39:04;14.30;99.90
3758;DHT22;1894;51.038;13.692;2023-03-13T17:41:33;14.40;99.90
3758;DHT22;1894;51.038;13.692;2023-03-13T17:44:01;14.40;99.90
3758;DHT22;1894;51.038;13.692;2023-03-13T17:46:42;14.50;99.90
3758;DHT22;1894;51.038;13.692;2023-03-13T17:49:13;14.70;99.90
3758;DHT22;1894;51.038;13.692;2023-03-13T17:51:42;14.60;99.90
3758;DHT22;1894;51.038;13.692;2023-03-13T17:54:11;14.50;99.90
3758;DHT22;1894;51.038;13.692;2023-03-13T17:56:42;14.50;99.90
3758;DHT22;1894;51.038;13.692;2023-03-13T17:59:15;14.40;99.90
3758;DHT22;1894;51.038;13.692;2023-03-13T18:01:44;14.40;99.90
3758;DHT22;1894;51.038;13.692;2023-03-13T18:04:11;14.50;99.90
3758;DHT22;1894;51.038;13.692;2023-03-13T18:06:41;14.50;99.90
3758;DHT22;1894;51.038;13.692;2023-03-13T18:09:15;14.50;99.90
3758;DHT22;1894;51.038;13.692;2023-03-13T18:11:43;14.40;99.90